< Cyclone 200916 2009 Season Cyclone 200918 >
Cyclone 200917 (Hamish)
General InformationTrack Information on Google MapsDetailed Wind InformationList of All Images || ResourceGoogle EarthGE AnimationAtom FeedGeoJSON
Detalied Best Track (Time Zone = UTC)
Year Month Day Hour Lat. Long. Pressure (hPa) Wind (kt) Class Image Chart
2009 3 5 00 -12.8 147.9 999 30 2 Image --
2009 3 5 06 -13.1 147.4 996 35 3 Image --
2009 3 5 12 -13.3 147.1 988 50 4 Image --
2009 3 5 18 -13.9 147.0 986 55 4 Image --
2009 3 6 00 -14.4 146.8 982 60 4 Image --
2009 3 6 06 -14.8 146.7 973 65 5 Image --
2009 3 6 12 -15.4 147.3 965 80 5 Image --
2009 3 6 18 -16.1 147.7 962 90 5 Image --
2009 3 7 00 -17.0 148.2 946 100 5 Image --
2009 3 7 06 -17.8 148.8 933 110 5 Image --
2009 3 7 12 -18.4 149.4 927 115 5 Image --
2009 3 7 18 -19.2 150.0 929 115 5 Image --
2009 3 8 00 -19.9 150.6 929 115 5 Image --
2009 3 8 06 -20.7 151.1 924 115 5 Image --
2009 3 8 12 -21.1 151.6 925 115 5 Image --
2009 3 8 18 -21.5 152.1 927 115 5 Image --
2009 3 9 00 -22.1 152.6 948 95 5 Image --
2009 3 9 06 -22.7 153.2 948 95 5 Image --
2009 3 9 12 -23.2 153.8 954 90 5 Image --
2009 3 9 18 -23.7 154.2 951 90 5 Image --
2009 3 10 00 -24.1 154.8 954 90 5 Image --
2009 3 10 06 -24.7 155.7 952 90 5 Image --
2009 3 10 12 -24.7 156.1 961 80 5 Image --
2009 3 10 18 -24.6 155.5 968 70 5 Image --
2009 3 11 00 -24.2 155.0 978 60 4 Image --
2009 3 11 06 -23.3 154.9 978 60 4 Image --
2009 3 11 12 -22.7 154.2 990 45 3 Image --
2009 3 11 18 -22.2 153.4 1000 30 2 Image --
< Cyclone 200916 2009 Season Cyclone 200918 >

Help